Kezdőlap
METAR-TAF:

METAR-TAF

Repülőterek :

Sion, Svájc

földrajzi szélesség: 46-13N, földrajzi hosszúság: 007-20E, magasság: 482 m

Jelenlegi meteorológiai megfigyelések

A jelentés 5 perccel ezelõtt készült, 20:20 UTC
Délnyugati szél 5 kt, déli és nyugati között változik
Hőmérséklet 6°C
Páratartalom 65%
Légköri nyomás 1027 hPa
Látótávolság 10 km, vagy több
Borult 10000 lábon

METAR: LSGS 192020Z AUTO 23005KT 190V260 9999 OVC100 06/00 Q1027

Idő: 21:25 (20:25 UTC)

Előrejelzés

A jelentés 6 órával és 0 perccel ezelõtt készült, 14:25 UTC
Az előrejelzés 19-én 15 óra UTC és 19-én 24 óra UTC között érvényes
Különbözõ irányokból fújó szél 3 kt
Látótávolság 10 km, vagy több
Szórványos felhőzet 2500 lábon
Szakadozott felhőzet 7000 lábon

TAF: LSGS 191425Z 1915/1924 VRB03KT 9999 SCT025 BKN070

Meteorológiai megfigyelések és előrejelzések több, mint 4000 repülőtéren (METAR és TAF jelentéseket).

A térképen piros és sárga pontok jelzik az elérhető meteorológiai állomásokat.

Mozgassa az egeret a pont fölött, hogy megjelenjen az állomás neve.

Azután kattintson az időjárási megfigyelések és előrejelzések megtekintéséhez.

A térkép megváltoztatása: kattintson a fekete keresztel jelölt zöld gombra ráközelítéshez, a vonallal jelölt zöld gombra távolításhoz, vagy a zöld nyilakra a szomszédos térképek eléréséhez.


METAR-TAF: